Impacts METAR Board
IDs:

KSFO - San Francisco Intl, CA, US

Updated at: 1900 UTC 21 Jun 2018
Potential Impact None Slight Moderate High
Time 21/07Z 21/08Z 21/09Z 21/10Z 21/11Z 21/12Z 21/13Z 21/14Z 21/15Z 21/16Z 21/17Z 21/18Z 21/19Z
Temp57 56 56 56 56 55 55 54 55 59 60 62 64
Dewpt49 49 49 48 48 48 48 48 48 49 49 49 49
Altim30.01 30.01 30.01 30.00 30.01 30.01 30.02 30.03 30.03 30.04 30.03 30.04 30.03
VIS10 10 10 10 10 10 10 10 10 10 10 10 10
CIG11 11 11 11 11 8 8 11 11 11 -- -- --
CoverBKNBKNBKNBKNOVCOVCOVCOVCBKNBKNSCTFEWFEW
FltCatMVFRMVFRMVFRMVFRMVFRIFRIFRMVFRMVFRMVFRVFRVFRVFR
WX--------------------------
WDir280270260260260250250260260270290300280
WSpd10 13 9 12 11 11 14 13 9 8 12 15 17
WGst-- -- -- -- -- -- 19 -- 18 -- -- -- --
Raw hourly METARs
KSFO 210656Z 28010KT 10SM FEW008 BKN011 14/09 A3001 RMK AO2 SLP163 T01390094 $
KSFO 210756Z 27013KT 10SM FEW008 BKN011 13/09 A3001 RMK AO2 SLP163 T01330094 401830128 $
KSFO 210856Z 26009KT 10SM FEW008 BKN011 13/09 A3001 RMK AO2 SLP163 T01330094 56003 $
KSFO 210956Z 26012KT 10SM FEW008 BKN011 13/09 A3000 RMK AO2 SLP159 T01330089 $
KSFO 211056Z 26011KT 10SM FEW008 OVC011 13/09 A3001 RMK AO2 SLP161 T01330089 $
KSFO 211156Z 25011KT 10SM FEW006 BKN008 OVC011 13/09 A3001 RMK AO2 SLP162 T01280089 10139 20128 55001 $
KSFO 211256Z 25014G19KT 10SM FEW006 BKN008 OVC011 13/09 A3002 RMK AO2 SLP166 T01280089 $
KSFO 211356Z 26013KT 10SM FEW006 SCT008 OVC011 12/09 A3003 RMK AO2 SLP168 T01220089 $
KSFO 211456Z 26009G18KT 10SM FEW006 SCT008 BKN011 13/09 A3003 RMK AO2 SLP169 T01280089 51007
KSFO 211556Z 27008KT 10SM SCT008 BKN011 15/09 A3004 RMK AO2 SLP173 T01500094
KSFO 211656Z 29012KT 10SM FEW007 SCT011 16/09 A3003 RMK AO2 SLP170 T01560094
KSFO 211756Z 30015KT 10SM FEW008 FEW013 17/09 A3004 RMK AO2 SLP170 T01670094 10167 20122 51001
KSFO 211856Z 28017KT 10SM FEW012 18/09 A3003 RMK AO2 SLP170 T01780094



Page loaded:  19:51 UTC  |   12:51 PM Pacific  |   01:51 PM Mountain  |   02:51 PM Central  |   03:51 PM Eastern

 

ADVISORIES

FORECASTS

FORECASTS

OBSERVATIONS

USER TOOLS

ABOUT US